sensor_id;sensor_type;location;lat;lon;timestamp;pressure;altitude;pressure_sealevel;temperature;humidity
53719;BME280;39616;48.872;9.390;2022-08-01T00:01:12;98309.38;;;20.45;64.53
53719;BME280;39616;48.872;9.390;2022-08-01T00:03:43;98305.75;;;20.41;64.71
53719;BME280;39616;48.872;9.390;2022-08-01T00:06:13;98304.50;;;20.38;64.59
53719;BME280;39616;48.872;9.390;2022-08-01T00:08:43;98309.16;;;20.34;65.79
53719;BME280;39616;48.872;9.390;2022-08-01T00:11:13;98314.22;;;20.32;65.50
53719;BME280;39616;48.872;9.390;2022-08-01T00:13:44;98308.63;;;20.28;66.60
53719;BME280;39616;48.872;9.390;2022-08-01T00:16:14;98304.59;;;20.22;66.79
53719;BME280;39616;48.872;9.390;2022-08-01T00:18:45;98314.72;;;20.18;67.06
53719;BME280;39616;48.872;9.390;2022-08-01T00:21:16;98306.81;;;20.17;66.96
53719;BME280;39616;48.872;9.390;2022-08-01T00:23:47;98306.38;;;20.15;66.77
53719;BME280;39616;48.872;9.390;2022-08-01T00:26:17;98306.31;;;20.11;68.78
53719;BME280;39616;48.872;9.390;2022-08-01T00:28:47;98310.13;;;20.07;68.38
53719;BME280;39616;48.872;9.390;2022-08-01T00:31:18;98317.59;;;20.06;68.22
53719;BME280;39616;48.872;9.390;2022-08-01T00:33:48;98307.66;;;20.01;68.60
53719;BME280;39616;48.872;9.390;2022-08-01T00:36:18;98314.66;;;19.99;68.67
53719;BME280;39616;48.872;9.390;2022-08-01T00:38:49;98317.31;;;20.11;67.85
53719;BME280;39616;48.872;9.390;2022-08-01T00:41:19;98314.47;;;20.08;68.30
53719;BME280;39616;48.872;9.390;2022-08-01T00:43:49;98321.56;;;20.09;67.75
53719;BME280;39616;48.872;9.390;2022-08-01T00:46:20;98314.13;;;20.09;68.01
53719;BME280;39616;48.872;9.390;2022-08-01T00:48:50;98318.81;;;20.09;68.26
53719;BME280;39616;48.872;9.390;2022-08-01T00:51:22;98318.38;;;20.07;68.55
53719;BME280;39616;48.872;9.390;2022-08-01T00:53:52;98320.41;;;20.10;67.51
53719;BME280;39616;48.872;9.390;2022-08-01T00:56:25;98324.03;;;20.14;67.88
53719;BME280;39616;48.872;9.390;2022-08-01T00:58:56;98322.03;;;20.11;68.47
53719;BME280;39616;48.872;9.390;2022-08-01T01:01:26;98323.53;;;20.08;68.40
53719;BME280;39616;48.872;9.390;2022-08-01T01:03:57;98323.44;;;20.05;68.71
53719;BME280;39616;48.872;9.390;2022-08-01T01:14:34;98330.66;;;19.93;69.43
53719;BME280;39616;48.872;9.390;2022-08-01T01:17:07;98326.34;;;19.92;70.45
53719;BME280;39616;48.872;9.390;2022-08-01T01:19:45;98334.75;;;19.84;71.19
53719;BME280;39616;48.872;9.390;2022-08-01T01:22:22;98339.75;;;19.78;72.00
53719;BME280;39616;48.872;9.390;2022-08-01T01:25:20;98332.75;;;19.65;72.91
53719;BME280;39616;48.872;9.390;2022-08-01T01:30:33;98327.94;;;19.46;73.75
53719;BME280;39616;48.872;9.390;2022-08-01T01:33:06;98334.22;;;19.46;74.03
53719;BME280;39616;48.872;9.390;2022-08-01T01:35:41;98332.97;;;19.44;74.37
53719;BME280;39616;48.872;9.390;2022-08-01T01:38:25;98330.59;;;19.42;75.13
53719;BME280;39616;48.872;9.390;2022-08-01T01:40:57;98344.25;;;19.39;75.22
53719;BME280;39616;48.872;9.390;2022-08-01T01:43:32;98334.75;;;19.36;75.72
53719;BME280;39616;48.872;9.390;2022-08-01T01:46:04;98351.16;;;19.33;76.50
53719;BME280;39616;48.872;9.390;2022-08-01T01:48:35;98349.38;;;19.24;77.26
53719;BME280;39616;48.872;9.390;2022-08-01T01:51:07;98350.06;;;19.21;76.86
53719;BME280;39616;48.872;9.390;2022-08-01T01:53:38;98349.09;;;19.14;78.16
53719;BME280;39616;48.872;9.390;2022-08-01T01:56:11;98350.53;;;19.08;78.24
53719;BME280;39616;48.872;9.390;2022-08-01T01:58:45;98350.31;;;19.00;78.98
53719;BME280;39616;48.872;9.390;2022-08-01T02:01:21;98348.28;;;18.97;79.77
53719;BME280;39616;48.872;9.390;2022-08-01T02:03:52;98350.81;;;18.90;82.17
53719;BME280;39616;48.872;9.390;2022-08-01T02:06:25;98349.47;;;18.84;82.29
53719;BME280;39616;48.872;9.390;2022-08-01T02:08:57;98346.72;;;18.84;82.49
53719;BME280;39616;48.872;9.390;2022-08-01T02:11:30;98347.88;;;18.83;82.97
53719;BME280;39616;48.872;9.390;2022-08-01T02:14:03;98353.00;;;18.85;82.27
53719;BME280;39616;48.872;9.390;2022-08-01T02:16:35;98345.03;;;18.79;82.62
53719;BME280;39616;48.872;9.390;2022-08-01T02:19:07;98348.16;;;18.78;82.04
53719;BME280;39616;48.872;9.390;2022-08-01T02:21:49;98354.75;;;18.77;82.33
53719;BME280;39616;48.872;9.390;2022-08-01T02:24:31;98349.16;;;18.73;82.98
53719;BME280;39616;48.872;9.390;2022-08-01T02:27:10;98360.72;;;18.67;84.19
53719;BME280;39616;48.872;9.390;2022-08-01T02:29:56;98355.69;;;18.69;83.84
53719;BME280;39616;48.872;9.390;2022-08-01T02:32:36;98359.38;;;18.61;84.76
53719;BME280;39616;48.872;9.390;2022-08-01T02:35:12;98357.22;;;18.54;85.04
53719;BME280;39616;48.872;9.390;2022-08-01T02:37:45;98364.56;;;18.50;85.53
53719;BME280;39616;48.872;9.390;2022-08-01T02:40:17;98359.75;;;18.47;85.86
53719;BME280;39616;48.872;9.390;2022-08-01T02:42:50;98364.09;;;18.48;86.20
53719;BME280;39616;48.872;9.390;2022-08-01T02:45:25;98362.97;;;18.49;86.57
53719;BME280;39616;48.872;9.390;2022-08-01T02:48:01;98361.81;;;18.50;86.18
53719;BME280;39616;48.872;9.390;2022-08-01T02:50:36;98364.56;;;18.50;86.42
53719;BME280;39616;48.872;9.390;2022-08-01T02:53:08;98374.28;;;18.47;86.90
53719;BME280;39616;48.872;9.390;2022-08-01T02:55:41;98369.94;;;18.46;87.36
53719;BME280;39616;48.872;9.390;2022-08-01T02:58:15;98369.03;;;18.42;87.36
53719;BME280;39616;48.872;9.390;2022-08-01T03:00:46;98373.28;;;18.40;87.52
53719;BME280;39616;48.872;9.390;2022-08-01T03:03:18;98371.59;;;18.35;88.21
53719;BME280;39616;48.872;9.390;2022-08-01T03:05:48;98375.47;;;18.34;88.53
53719;BME280;39616;48.872;9.390;2022-08-01T03:08:20;98373.84;;;18.33;89.23
53719;BME280;39616;48.872;9.390;2022-08-01T03:10:53;98371.00;;;18.29;89.76
53719;BME280;39616;48.872;9.390;2022-08-01T03:13:25;98370.91;;;18.26;89.56
53719;BME280;39616;48.872;9.390;2022-08-01T03:15:57;98367.94;;;18.19;90.37
53719;BME280;39616;48.872;9.390;2022-08-01T03:18:29;98369.78;;;18.15;91.02
53719;BME280;39616;48.872;9.390;2022-08-01T03:21:01;98370.00;;;18.09;91.71
53719;BME280;39616;48.872;9.390;2022-08-01T03:23:32;98377.78;;;18.07;92.13
53719;BME280;39616;48.872;9.390;2022-08-01T03:26:03;98373.81;;;18.05;91.69
53719;BME280;39616;48.872;9.390;2022-08-01T03:28:35;98376.19;;;18.06;92.25
53719;BME280;39616;48.872;9.390;2022-08-01T03:31:07;98381.22;;;18.04;92.32
53719;BME280;39616;48.872;9.390;2022-08-01T03:33:38;98372.19;;;18.04;93.38
53719;BME280;39616;48.872;9.390;2022-08-01T03:36:10;98370.00;;;18.09;93.50
53719;BME280;39616;48.872;9.390;2022-08-01T03:38:43;98374.34;;;18.10;93.16
53719;BME280;39616;48.872;9.390;2022-08-01T03:41:19;98375.97;;;18.12;93.20
53719;BME280;39616;48.872;9.390;2022-08-01T03:43:57;98373.56;;;18.10;93.06
53719;BME280;39616;48.872;9.390;2022-08-01T03:46:52;98379.41;;;18.08;93.37
53719;BME280;39616;48.872;9.390;2022-08-01T03:49:28;98377.09;;;18.10;93.86
53719;BME280;39616;48.872;9.390;2022-08-01T03:52:03;98383.38;;;18.11;93.81
53719;BME280;39616;48.872;9.390;2022-08-01T03:54:42;98385.31;;;18.10;94.04
53719;BME280;39616;48.872;9.390;2022-08-01T03:57:16;98383.38;;;18.11;94.07
53719;BME280;39616;48.872;9.390;2022-08-01T03:59:46;98377.56;;;18.13;94.33
53719;BME280;39616;48.872;9.390;2022-08-01T04:02:18;98382.38;;;18.16;94.13
53719;BME280;39616;48.872;9.390;2022-08-01T04:04:49;98384.88;;;18.21;93.70
53719;BME280;39616;48.872;9.390;2022-08-01T04:07:24;98384.50;;;18.22;93.38
53719;BME280;39616;48.872;9.390;2022-08-01T04:09:55;98379.84;;;18.23;94.05
53719;BME280;39616;48.872;9.390;2022-08-01T04:12:28;98391.94;;;18.34;94.26
53719;BME280;39616;48.872;9.390;2022-08-01T04:14:58;98387.94;;;18.31;94.18
53719;BME280;39616;48.872;9.390;2022-08-01T04:17:28;98387.59;;;18.33;95.20
53719;BME280;39616;48.872;9.390;2022-08-01T04:19:59;98386.22;;;18.39;95.30
53719;BME280;39616;48.872;9.390;2022-08-01T04:22:30;98392.72;;;18.47;95.56
53719;BME280;39616;48.872;9.390;2022-08-01T04:25:01;98390.84;;;18.63;94.18
53719;BME280;39616;48.872;9.390;2022-08-01T04:27:43;98397.13;;;18.76;93.30
53719;BME280;39616;48.872;9.390;2022-08-01T04:30:18;98400.88;;;18.83;92.77
53719;BME280;39616;48.872;9.390;2022-08-01T04:32:50;98400.63;;;18.89;92.73
53719;BME280;39616;48.872;9.390;2022-08-01T04:35:22;98401.06;;;18.91;93.17
53719;BME280;39616;48.872;9.390;2022-08-01T04:37:55;98400.13;;;18.99;92.81
53719;BME280;39616;48.872;9.390;2022-08-01T04:40:28;98404.66;;;19.07;92.04
53719;BME280;39616;48.872;9.390;2022-08-01T04:42:58;98397.78;;;19.13;92.22
53719;BME280;39616;48.872;9.390;2022-08-01T04:45:28;98396.38;;;19.19;91.59
53719;BME280;39616;48.872;9.390;2022-08-01T04:47:59;98405.16;;;19.25;92.91
53719;BME280;39616;48.872;9.390;2022-08-01T04:50:30;98404.03;;;19.26;92.00
53719;BME280;39616;48.872;9.390;2022-08-01T04:53:02;98411.81;;;19.24;91.95
53719;BME280;39616;48.872;9.390;2022-08-01T04:55:33;98402.50;;;19.28;92.41
53719;BME280;39616;48.872;9.390;2022-08-01T04:58:03;98404.66;;;19.35;91.56
53719;BME280;39616;48.872;9.390;2022-08-01T05:00:34;98405.28;;;19.44;90.81
53719;BME280;39616;48.872;9.390;2022-08-01T05:03:04;98408.75;;;19.57;90.02
53719;BME280;39616;48.872;9.390;2022-08-01T05:05:34;98406.41;;;19.71;89.89
53719;BME280;39616;48.872;9.390;2022-08-01T05:08:05;98395.84;;;19.89;88.91
53719;BME280;39616;48.872;9.390;2022-08-01T05:10:36;98394.31;;;20.08;88.52
53719;BME280;39616;48.872;9.390;2022-08-01T05:13:06;98395.84;;;20.24;87.89
53719;BME280;39616;48.872;9.390;2022-08-01T05:15:36;98392.22;;;20.36;87.19
53719;BME280;39616;48.872;9.390;2022-08-01T05:18:07;98386.56;;;20.48;86.60
53719;BME280;39616;48.872;9.390;2022-08-01T05:20:37;98389.50;;;20.56;85.42
53719;BME280;39616;48.872;9.390;2022-08-01T05:23:07;98388.13;;;20.65;85.15
53719;BME280;39616;48.872;9.390;2022-08-01T05:25:38;98390.88;;;20.65;84.82
53719;BME280;39616;48.872;9.390;2022-08-01T05:28:08;98390.72;;;20.58;84.27
53719;BME280;39616;48.872;9.390;2022-08-01T05:30:39;98393.84;;;20.57;85.40
53719;BME280;39616;48.872;9.390;2022-08-01T05:33:09;98391.75;;;20.50;86.43
53719;BME280;39616;48.872;9.390;2022-08-01T05:35:39;98389.25;;;20.45;86.27
53719;BME280;39616;48.872;9.390;2022-08-01T05:38:10;98391.28;;;20.48;86.42
53719;BME280;39616;48.872;9.390;2022-08-01T05:40:40;98387.97;;;20.58;85.60
53719;BME280;39616;48.872;9.390;2022-08-01T05:43:10;98401.72;;;20.74;85.11
53719;BME280;39616;48.872;9.390;2022-08-01T05:45:41;98401.94;;;20.85;84.29
53719;BME280;39616;48.872;9.390;2022-08-01T05:48:11;98406.50;;;20.96;84.52
53719;BME280;39616;48.872;9.390;2022-08-01T05:50:42;98410.81;;;21.17;84.16
53719;BME280;39616;48.872;9.390;2022-08-01T05:53:12;98408.81;;;21.33;81.94
53719;BME280;39616;48.872;9.390;2022-08-01T05:55:42;98408.34;;;21.51;81.73
53719;BME280;39616;48.872;9.390;2022-08-01T05:58:13;98406.06;;;21.33;80.96
53719;BME280;39616;48.872;9.390;2022-08-01T06:00:43;98416.41;;;21.20;81.98
53719;BME280;39616;48.872;9.390;2022-08-01T06:03:13;98411.69;;;21.40;82.35
53719;BME280;39616;48.872;9.390;2022-08-01T06:05:44;98414.53;;;21.67;82.29
53719;BME280;39616;48.872;9.390;2022-08-01T06:08:14;98413.53;;;21.79;80.74
53719;BME280;39616;48.872;9.390;2022-08-01T06:10:45;98410.13;;;21.85;79.82
53719;BME280;39616;48.872;9.390;2022-08-01T06:13:16;98407.91;;;21.94;79.75
53719;BME280;39616;48.872;9.390;2022-08-01T06:15:47;98407.59;;;22.00;80.01
53719;BME280;39616;48.872;9.390;2022-08-01T06:18:18;98421.91;;;22.09;78.67
53719;BME280;39616;48.872;9.390;2022-08-01T06:20:48;98412.91;;;22.12;79.63
53719;BME280;39616;48.872;9.390;2022-08-01T06:23:20;98407.75;;;22.10;79.05
53719;BME280;39616;48.872;9.390;2022-08-01T06:25:53;98415.91;;;22.26;79.51
53719;BME280;39616;48.872;9.390;2022-08-01T06:28:24;98418.50;;;22.15;78.40
53719;BME280;39616;48.872;9.390;2022-08-01T06:30:55;98414.38;;;22.29;78.63
53719;BME280;39616;48.872;9.390;2022-08-01T06:33:26;98413.41;;;22.44;79.01
53719;BME280;39616;48.872;9.390;2022-08-01T06:35:56;98412.63;;;22.43;78.09
53719;BME280;39616;48.872;9.390;2022-08-01T06:38:27;98403.59;;;22.47;78.11
53719;BME280;39616;48.872;9.390;2022-08-01T06:40:57;98405.59;;;22.50;77.20
53719;BME280;39616;48.872;9.390;2022-08-01T06:43:27;98415.19;;;22.59;77.34
53719;BME280;39616;48.872;9.390;2022-08-01T06:45:58;98413.88;;;22.50;77.06
53719;BME280;39616;48.872;9.390;2022-08-01T06:48:28;98415.06;;;22.79;76.70
53719;BME280;39616;48.872;9.390;2022-08-01T06:53:38;98421.47;;;22.86;76.09
53719;BME280;39616;48.872;9.390;2022-08-01T06:56:08;98419.88;;;22.85;75.68
53719;BME280;39616;48.872;9.390;2022-08-01T06:58:38;98409.66;;;22.89;75.86
53719;BME280;39616;48.872;9.390;2022-08-01T07:01:09;98411.41;;;22.98;75.67
53719;BME280;39616;48.872;9.390;2022-08-01T07:03:39;98417.16;;;23.19;75.30
53719;BME280;39616;48.872;9.390;2022-08-01T07:06:09;98422.03;;;23.29;73.88
53719;BME280;39616;48.872;9.390;2022-08-01T07:08:40;98423.50;;;23.57;73.23
53719;BME280;39616;48.872;9.390;2022-08-01T07:11:11;98417.34;;;23.37;73.09
53719;BME280;39616;48.872;9.390;2022-08-01T07:13:41;98424.03;;;23.32;73.44
53719;BME280;39616;48.872;9.390;2022-08-01T07:16:12;98412.31;;;23.46;72.50
53719;BME280;39616;48.872;9.390;2022-08-01T07:18:43;98410.66;;;23.75;72.64
53719;BME280;39616;48.872;9.390;2022-08-01T07:21:14;98410.84;;;24.00;70.74
53719;BME280;39616;48.872;9.390;2022-08-01T07:23:44;98410.00;;;24.44;68.81
53719;BME280;39616;48.872;9.390;2022-08-01T07:26:14;98408.09;;;24.55;68.19
53719;BME280;39616;48.872;9.390;2022-08-01T07:28:44;98413.84;;;24.29;68.39
53719;BME280;39616;48.872;9.390;2022-08-01T07:31:15;98415.31;;;24.67;66.01
53719;BME280;39616;48.872;9.390;2022-08-01T07:33:45;98413.75;;;24.80;65.95
53719;BME280;39616;48.872;9.390;2022-08-01T07:36:16;98405.75;;;24.61;65.74
53719;BME280;39616;48.872;9.390;2022-08-01T07:38:47;98411.88;;;25.02;64.84
53719;BME280;39616;48.872;9.390;2022-08-01T07:41:18;98407.19;;;24.41;66.05
53719;BME280;39616;48.872;9.390;2022-08-01T07:43:48;98396.19;;;24.51;66.50
53719;BME280;39616;48.872;9.390;2022-08-01T07:46:19;98402.91;;;25.34;63.31
53719;BME280;39616;48.872;9.390;2022-08-01T07:48:49;98408.81;;;25.29;63.36
53719;BME280;39616;48.872;9.390;2022-08-01T07:51:19;98403.31;;;25.58;62.80
53719;BME280;39616;48.872;9.390;2022-08-01T07:53:50;98408.53;;;26.13;59.60
53719;BME280;39616;48.872;9.390;2022-08-01T07:56:20;98402.97;;;26.16;60.76
53719;BME280;39616;48.872;9.390;2022-08-01T07:58:50;98410.09;;;26.17;60.94
53719;BME280;39616;48.872;9.390;2022-08-01T08:01:21;98405.75;;;25.88;59.76
53719;BME280;39616;48.872;9.390;2022-08-01T08:03:52;98405.28;;;25.43;61.52
53719;BME280;39616;48.872;9.390;2022-08-01T08:06:22;98415.03;;;24.94;65.22
53719;BME280;39616;48.872;9.390;2022-08-01T08:08:52;98409.66;;;25.51;63.18
53719;BME280;39616;48.872;9.390;2022-08-01T08:11:23;98407.31;;;25.67;61.84
53719;BME280;39616;48.872;9.390;2022-08-01T08:13:53;98406.03;;;25.25;61.68
53719;BME280;39616;48.872;9.390;2022-08-01T08:16:24;98410.84;;;25.50;60.42
53719;BME280;39616;48.872;9.390;2022-08-01T08:18:54;98410.13;;;26.03;59.32
53719;BME280;39616;48.872;9.390;2022-08-01T08:21:25;98407.38;;;25.89;59.78
53719;BME280;39616;48.872;9.390;2022-08-01T08:23:55;98408.94;;;25.86;59.78
53719;BME280;39616;48.872;9.390;2022-08-01T08:26:45;98410.00;;;25.24;62.02
53719;BME280;39616;48.872;9.390;2022-08-01T08:29:16;98410.47;;;25.66;60.49
53719;BME280;39616;48.872;9.390;2022-08-01T08:31:46;98402.88;;;25.23;62.10
53719;BME280;39616;48.872;9.390;2022-08-01T08:34:17;98404.47;;;25.28;62.19
53719;BME280;39616;48.872;9.390;2022-08-01T08:36:48;98412.09;;;25.95;61.23
53719;BME280;39616;48.872;9.390;2022-08-01T08:39:18;98404.59;;;25.89;60.03
53719;BME280;39616;48.872;9.390;2022-08-01T08:41:49;98413.25;;;25.62;60.92
53719;BME280;39616;48.872;9.390;2022-08-01T08:44:19;98402.97;;;26.02;59.65
53719;BME280;39616;48.872;9.390;2022-08-01T08:46:51;98391.03;;;26.52;58.20
53719;BME280;39616;48.872;9.390;2022-08-01T08:49:27;98396.59;;;26.34;58.54
53719;BME280;39616;48.872;9.390;2022-08-01T08:51:59;98401.75;;;26.28;60.44
53719;BME280;39616;48.872;9.390;2022-08-01T08:54:31;98397.31;;;26.81;57.49
53719;BME280;39616;48.872;9.390;2022-08-01T08:57:02;98403.00;;;27.40;55.67
53719;BME280;39616;48.872;9.390;2022-08-01T08:59:33;98404.00;;;27.67;53.39
53719;BME280;39616;48.872;9.390;2022-08-01T09:02:04;98409.91;;;27.14;53.69
53719;BME280;39616;48.872;9.390;2022-08-01T09:04:36;98408.91;;;27.49;54.17
53719;BME280;39616;48.872;9.390;2022-08-01T09:07:07;98405.72;;;26.45;56.73
53719;BME280;39616;48.872;9.390;2022-08-01T09:09:38;98404.09;;;26.65;55.12
53719;BME280;39616;48.872;9.390;2022-08-01T09:12:09;98403.63;;;26.88;54.26
53719;BME280;39616;48.872;9.390;2022-08-01T09:14:47;98399.03;;;27.41;52.89
53719;BME280;39616;48.872;9.390;2022-08-01T09:17:17;98402.47;;;27.59;52.53
53719;BME280;39616;48.872;9.390;2022-08-01T09:19:49;98410.72;;;27.07;52.83
53719;BME280;39616;48.872;9.390;2022-08-01T09:22:24;98399.88;;;27.90;52.96
53719;BME280;39616;48.872;9.390;2022-08-01T09:25:06;98411.47;;;27.18;51.45
53719;BME280;39616;48.872;9.390;2022-08-01T09:27:38;98416.09;;;26.05;54.71
53719;BME280;39616;48.872;9.390;2022-08-01T09:30:16;98419.59;;;25.66;56.56
53719;BME280;39616;48.872;9.390;2022-08-01T09:32:56;98414.09;;;26.06;56.34
53719;BME280;39616;48.872;9.390;2022-08-01T09:35:34;98404.41;;;26.96;53.76
53719;BME280;39616;48.872;9.390;2022-08-01T09:38:22;98409.06;;;27.17;53.83
53719;BME280;39616;48.872;9.390;2022-08-01T09:40:53;98405.16;;;27.81;52.40
53719;BME280;39616;48.872;9.390;2022-08-01T09:43:28;98413.81;;;27.27;52.40
53719;BME280;39616;48.872;9.390;2022-08-01T09:46:04;98408.78;;;27.67;51.39
53719;BME280;39616;48.872;9.390;2022-08-01T09:48:34;98406.19;;;29.15;48.48
53719;BME280;39616;48.872;9.390;2022-08-01T09:51:07;98404.59;;;29.44;47.10
53719;BME280;39616;48.872;9.390;2022-08-01T09:53:47;98404.84;;;28.92;47.76
53719;BME280;39616;48.872;9.390;2022-08-01T09:56:21;98401.06;;;27.92;52.30
53719;BME280;39616;48.872;9.390;2022-08-01T09:58:58;98411.56;;;26.93;52.34
53719;BME280;39616;48.872;9.390;2022-08-01T10:01:41;98412.34;;;26.90;52.87
53719;BME280;39616;48.872;9.390;2022-08-01T10:04:13;98408.91;;;27.49;51.76
53719;BME280;39616;48.872;9.390;2022-08-01T10:06:45;98412.25;;;27.19;52.27
53719;BME280;39616;48.872;9.390;2022-08-01T10:09:34;98419.09;;;26.96;52.71
53719;BME280;39616;48.872;9.390;2022-08-01T10:12:04;98407.13;;;27.07;52.28
53719;BME280;39616;48.872;9.390;2022-08-01T10:14:36;98406.03;;;26.79;52.02
53719;BME280;39616;48.872;9.390;2022-08-01T10:17:09;98409.28;;;26.56;52.56
53719;BME280;39616;48.872;9.390;2022-08-01T10:19:42;98397.38;;;26.59;52.03
53719;BME280;39616;48.872;9.390;2022-08-01T10:22:14;98404.25;;;27.25;51.08
53719;BME280;39616;48.872;9.390;2022-08-01T10:24:48;98389.38;;;27.53;50.52
53719;BME280;39616;48.872;9.390;2022-08-01T10:27:21;98386.38;;;27.26;51.38
53719;BME280;39616;48.872;9.390;2022-08-01T10:29:58;98388.78;;;28.28;49.78
53719;BME280;39616;48.872;9.390;2022-08-01T10:32:35;98385.03;;;27.52;49.75
53719;BME280;39616;48.872;9.390;2022-08-01T10:35:07;98391.66;;;28.21;48.19
53719;BME280;39616;48.872;9.390;2022-08-01T10:37:38;98380.63;;;29.16;47.82
53719;BME280;39616;48.872;9.390;2022-08-01T10:40:08;98385.75;;;29.79;45.64
53719;BME280;39616;48.872;9.390;2022-08-01T10:42:42;98375.44;;;29.45;45.52
53719;BME280;39616;48.872;9.390;2022-08-01T10:45:15;98384.56;;;28.88;45.96
53719;BME280;39616;48.872;9.390;2022-08-01T10:47:56;98377.31;;;28.94;45.89
53719;BME280;39616;48.872;9.390;2022-08-01T10:50:41;98383.50;;;28.78;45.86
53719;BME280;39616;48.872;9.390;2022-08-01T10:53:15;98379.91;;;29.93;44.13
53719;BME280;39616;48.872;9.390;2022-08-01T10:58:24;98368.81;;;29.63;45.24
53719;BME280;39616;48.872;9.390;2022-08-01T11:03:56;98375.31;;;28.60;46.95
53719;BME280;39616;48.872;9.390;2022-08-01T11:09:14;98371.81;;;27.63;49.27
53719;BME280;39616;48.872;9.390;2022-08-01T11:28:24;98352.72;;;28.13;46.79
53719;BME280;39616;48.872;9.390;2022-08-01T11:36:18;98340.50;;;29.06;45.07
53719;BME280;39616;48.872;9.390;2022-08-01T11:41:31;98329.91;;;29.75;43.63
53719;BME280;39616;48.872;9.390;2022-08-01T11:44:20;98331.44;;;29.53;43.58
53719;BME280;39616;48.872;9.390;2022-08-01T11:47:04;98324.59;;;29.57;43.09
53719;BME280;39616;48.872;9.390;2022-08-01T11:54:46;98327.34;;;28.76;44.56
53719;BME280;39616;48.872;9.390;2022-08-01T11:57:28;98320.97;;;29.60;46.19
53719;BME280;39616;48.872;9.390;2022-08-01T12:00:16;98325.59;;;28.86;44.37
53719;BME280;39616;48.872;9.390;2022-08-01T12:03:05;98312.72;;;28.65;44.01
53719;BME280;39616;48.872;9.390;2022-08-01T12:05:36;98327.28;;;28.46;44.97
53719;BME280;39616;48.872;9.390;2022-08-01T12:08:07;98321.06;;;28.31;46.77
53719;BME280;39616;48.872;9.390;2022-08-01T12:10:37;98313.09;;;28.67;46.25
53719;BME280;39616;48.872;9.390;2022-08-01T12:13:07;98306.53;;;29.39;43.77
53719;BME280;39616;48.872;9.390;2022-08-01T12:15:38;98313.88;;;28.68;45.42
53719;BME280;39616;48.872;9.390;2022-08-01T12:18:08;98310.59;;;28.42;45.86
53719;BME280;39616;48.872;9.390;2022-08-01T12:20:41;98309.25;;;28.16;46.02
53719;BME280;39616;48.872;9.390;2022-08-01T12:23:15;98302.34;;;28.28;46.76
53719;BME280;39616;48.872;9.390;2022-08-01T12:25:51;98305.03;;;28.01;46.61
53719;BME280;39616;48.872;9.390;2022-08-01T12:28:21;98293.22;;;28.27;47.15
53719;BME280;39616;48.872;9.390;2022-08-01T12:30:53;98302.88;;;27.74;47.45
53719;BME280;39616;48.872;9.390;2022-08-01T12:33:23;98295.13;;;28.68;46.67
53719;BME280;39616;48.872;9.390;2022-08-01T12:35:54;98296.69;;;28.73;45.65
53719;BME280;39616;48.872;9.390;2022-08-01T12:38:24;98294.28;;;29.05;45.77
53719;BME280;39616;48.872;9.390;2022-08-01T12:40:56;98307.28;;;28.85;45.40
53719;BME280;39616;48.872;9.390;2022-08-01T12:43:31;98299.47;;;28.73;45.78
53719;BME280;39616;48.872;9.390;2022-08-01T12:46:02;98299.03;;;28.06;46.37
53719;BME280;39616;48.872;9.390;2022-08-01T12:48:32;98300.66;;;28.41;45.95
53719;BME280;39616;48.872;9.390;2022-08-01T12:51:03;98299.00;;;28.78;45.63
53719;BME280;39616;48.872;9.390;2022-08-01T12:53:34;98291.06;;;29.07;46.02
53719;BME280;39616;48.872;9.390;2022-08-01T12:56:04;98287.38;;;29.13;45.39
53719;BME280;39616;48.872;9.390;2022-08-01T12:58:35;98290.69;;;29.32;44.84
53719;BME280;39616;48.872;9.390;2022-08-01T13:01:10;98294.44;;;28.91;44.71
53719;BME280;39616;48.872;9.390;2022-08-01T13:04:00;98298.31;;;28.97;44.73
53719;BME280;39616;48.872;9.390;2022-08-01T13:06:31;98278.16;;;29.17;44.22
53719;BME280;39616;48.872;9.390;2022-08-01T13:09:06;98292.44;;;28.92;44.84
53719;BME280;39616;48.872;9.390;2022-08-01T13:11:37;98293.34;;;28.54;45.15
53719;BME280;39616;48.872;9.390;2022-08-01T13:14:07;98288.69;;;28.75;45.68
53719;BME280;39616;48.872;9.390;2022-08-01T13:16:47;98285.66;;;28.62;44.76
53719;BME280;39616;48.872;9.390;2022-08-01T13:19:18;98274.03;;;28.94;44.24
53719;BME280;39616;48.872;9.390;2022-08-01T13:21:57;98274.75;;;29.05;43.82
53719;BME280;39616;48.872;9.390;2022-08-01T13:24:28;98274.16;;;28.56;44.31
53719;BME280;39616;48.872;9.390;2022-08-01T13:27:03;98273.38;;;28.56;44.82
53719;BME280;39616;48.872;9.390;2022-08-01T13:29:39;98278.03;;;27.94;46.14
53719;BME280;39616;48.872;9.390;2022-08-01T13:32:15;98281.28;;;27.89;46.21
53719;BME280;39616;48.872;9.390;2022-08-01T13:34:46;98274.78;;;28.71;44.74
53719;BME280;39616;48.872;9.390;2022-08-01T13:37:16;98272.13;;;28.60;44.39
53719;BME280;39616;48.872;9.390;2022-08-01T13:39:47;98263.16;;;28.46;45.39
53719;BME280;39616;48.872;9.390;2022-08-01T13:42:17;98264.78;;;28.05;45.83
53719;BME280;39616;48.872;9.390;2022-08-01T13:44:48;98275.44;;;28.52;44.73
53719;BME280;39616;48.872;9.390;2022-08-01T13:47:18;98264.84;;;28.97;44.64
53719;BME280;39616;48.872;9.390;2022-08-01T13:49:48;98271.34;;;28.60;45.15
53719;BME280;39616;48.872;9.390;2022-08-01T13:52:19;98264.84;;;28.39;45.51
53719;BME280;39616;48.872;9.390;2022-08-01T13:54:49;98262.84;;;28.36;45.70
53719;BME280;39616;48.872;9.390;2022-08-01T13:57:19;98266.56;;;27.88;46.23
53719;BME280;39616;48.872;9.390;2022-08-01T13:59:51;98278.06;;;27.45;46.72
53719;BME280;39616;48.872;9.390;2022-08-01T14:02:22;98267.34;;;27.44;47.07
53719;BME280;39616;48.872;9.390;2022-08-01T14:04:53;98268.09;;;27.48;47.42
53719;BME280;39616;48.872;9.390;2022-08-01T14:07:24;98270.84;;;27.52;48.01
53719;BME280;39616;48.872;9.390;2022-08-01T14:09:54;98269.66;;;27.53;48.41
53719;BME280;39616;48.872;9.390;2022-08-01T14:12:25;98267.97;;;27.62;47.58
53719;BME280;39616;48.872;9.390;2022-08-01T14:14:55;98258.72;;;27.76;46.85
53719;BME280;39616;48.872;9.390;2022-08-01T14:17:26;98267.31;;;27.48;47.25
53719;BME280;39616;48.872;9.390;2022-08-01T14:19:56;98267.53;;;27.67;46.66